Terminal Aerodrome Forecast
Issued by NWS

Home | Current Version | Previous Version | Text Only | Print | Product List | Glossary On
Versions: 1 2 3 4 5 6 7 8 9 10 11 12
000
FTUS42 TJSJ 032300
TAFJPS
TAF
TJPS 032333Z 0400/0424 05005KT P6SM SKC
     FM041330 08010KT P6SM FEW030
      TEMPO 0415/0419 14012G18KT
     FM042200 06005KT P6SM FEW030
      AMD NOT SKED TIL 040300=

USA.gov is the U.S. government's official web portal to all federal, state and local government web resources and services.